Latest Coastal Weather Observations for Lady Elliot Island

IDQ60701

Issued at 8:12 am EST Thursday 23 November 2017 (issued every 10 minutes, with the page automatically refreshed every 10 minutes)

About coastal observations | Map of coastal stations | Coastal observations for QLD | Marine services | Other Formats
Station Details ID: 039059 Name: LADY ELLIOT ISLAND Lat: -24.11 Lon: 152.72 Height: 3.6 m
Data from the previous 72 hours. | See also: Recent months at Lady Elliot Island
Date/Time
EST
Temp
°C
Wind Pressure Rain since
9am
mm
Weather Cloud Vis
km
Sea
Height
m
Swell
Dir  Spd
kts
Gust
kts
hPa Trend Height
m
Period
s
Dir
23/08:00am 24.2 SE 15 19 1013.9 - 9.0 - - - - - - -
23/07:30am 24.0 SE 15 18 1013.8 - 9.0 - - - - - - -
23/07:00am 22.7 ESE 12 18 1013.6 - 9.0 - - - - - - -
23/06:30am 22.0 E 11 16 1013.6 - 9.0 - - - - - - -
23/06:00am 22.7 SE 13 18 1013.0 - 9.0 - - - - - - -
23/05:30am 22.5 SE 15 19 1012.5 - 9.0 - - - - - - -
23/05:00am 22.3 ESE 15 19 1012.2 - 9.0 - - - - - - -
23/04:30am 22.4 ESE 14 18 1012.0 - 9.0 - - - - - - -
23/04:00am 22.3 ESE 14 18 1011.8 - 9.0 - - - - - - -
23/03:30am 22.2 ESE 15 19 1011.5 - 9.0 - - - - - - -
23/03:00am 22.1 ESE 15 21 1011.5 - 9.0 - - - - - - -
23/02:30am 22.1 ESE 15 18 1011.6 - 9.0 - - - - - - -
23/02:00am 22.2 ESE 16 20 1011.7 - 9.0 - - - - - - -
23/01:30am 22.0 ESE 17 20 1011.9 - 9.0 - - - - - - -
23/01:00am 22.0 SE 15 19 1012.1 - 9.0 - - - - - - -
23/12:30am 22.0 SE 15 19 1012.6 - 9.0 - - - - - - -
23/12:00am 22.0 SE 15 19 1012.8 - 9.0 - - - - - - -
 
Date/Time
EST
Temp
°C
Wind Pressure Rain since
9am
mm
Weather Cloud Vis
km
Sea
Height
m
Swell
Dir  Spd
kts
Gust
kts
hPa Trend Height
m
Period
s
Dir
22/11:30pm 22.2 ESE 16 19 1013.2 - 9.0 - - - - - - -
22/11:00pm 22.1 SE 17 20 1013.4 - 9.0 - - - - - - -
22/10:30pm 22.1 SE 15 20 1013.7 - 9.0 - - - - - - -
22/10:00pm 22.0 SE 15 19 1014.0 - 9.0 - - - - - - -
22/09:30pm 21.8 SE 15 19 1014.3 - 9.0 - - - - - - -
22/09:00pm 21.6 SE 17 21 1014.5 - 9.0 - - - - - - -
22/08:30pm 21.6 ESE 16 21 1014.2 - 9.0 - - - - - - -
22/08:00pm 20.7 ESE 17 21 1014.3 - 9.0 - - - - - - -
22/07:30pm 22.0 SE 19 25 1014.1 - 9.0 - - - - - - -
22/07:00pm 21.5 SE 16 21 1014.0 - 9.0 - - - - - - -
22/06:30pm 22.0 SSE 16 22 1013.6 - 9.0 - - - - - - -
22/06:00pm 22.2 SE 17 21 1013.3 - 9.0 - - - - - - -
22/05:30pm 22.5 SE 16 21 1013.3 - 9.0 - - - - - - -
22/05:00pm 23.0 SE 16 20 1013.0 - 9.0 - - - - - - -
22/04:30pm 23.0 SE 15 19 1012.9 - 9.0 - - - - - - -
22/04:00pm 22.3 SE 13 17 1012.8 - 9.0 - - - - - - -
22/03:30pm 22.2 SE 14 19 1012.7 - 9.0 - - - - - - -
22/03:00pm 22.2 SE 14 18 1012.9 - 8.8 - - - - - - -
22/02:30pm 23.1 SE 13 16 1012.9 - 8.8 - - - - - - -
22/02:00pm 22.7 SE 11 15 1012.9 - 8.8 - - - - - - -
22/01:30pm 22.4 SE 13 18 1013.1 - 8.8 - - - - - - -
22/01:00pm 21.6 SE 14 18 1013.4 - 8.8 - - - - - - -
22/12:30pm 20.8 SE 14 18 1013.9 - 8.4 - - - - - - -
22/12:00pm 20.9 ESE 15 19 1014.0 - 7.4 Rain - - - - - -
22/11:30am 21.0 ESE 17 23 1014.1 - 3.0 - - - - - - -
22/11:00am 23.2 SE 9 15 1014.2 - 0.2 - - - - - - -
22/10:30am 23.3 ESE 9 11 1014.4 - 0.2 - - - - - - -
22/10:00am 21.8 E 9 13 1014.7 - 0.2 - - - - - - -
22/09:30am 21.4 E 5 9 1015.1 - 0.0 - - - - - - -
22/09:00am 20.4 ESE 10 18 1014.8 - 10.0 Rain - - - - - -
22/08:30am 20.6 ESE 8 16 1014.5 - 8.8 - - - - - - -
22/08:00am 22.5 SE 10 13 1014.6 - 0.2 - - - - - - -
22/07:30am 22.9 SE 11 15 1014.4 - 0.2 - - - - - - -
22/07:00am 22.6 ESE 12 16 1014.4 - 0.2 - - - - - - -
22/06:30am 22.4 ESE 13 17 1013.9 - 0.2 - - - - - - -
22/06:00am 22.4 SE 12 16 1013.5 - 0.2 - - - - - - -
22/05:30am 22.2 ESE 14 17 1013.1 - 0.2 - - - - - - -
22/05:00am 21.8 ESE 17 23 1012.9 - 0.2 - - - - - - -
22/04:30am 22.2 SE 14 19 1012.7 - 0.2 - - - - - - -
22/04:00am 22.2 ESE 15 18 1012.5 - 0.2 - - - - - - -
22/03:30am 22.2 ESE 15 19 1012.5 - 0.2 - - - - - - -
22/03:00am 22.3 SE 16 21 1012.4 - 0.2 - - - - - - -
22/02:30am 22.2 SE 15 21 1012.5 - 0.2 - - - - - - -
22/02:00am 22.4 ESE 15 19 1012.7 - 0.2 - - - - - - -
22/01:30am 22.3 ESE 15 19 1012.8 - 0.2 - - - - - - -
22/01:00am 22.4 ESE 16 21 1013.1 - 0.2 - - - - - - -
22/12:30am 22.4 ESE 17 22 1013.6 - 0.2 - - - - - - -
22/12:00am 22.3 SE 17 21 1013.9 - 0.2 - - - - - - -
 
Date/Time
EST
Temp
°C
Wind Pressure Rain since
9am
mm
Weather Cloud Vis
km
Sea
Height
m
Swell
Dir  Spd
kts
Gust
kts
hPa Trend Height
m
Period
s
Dir
21/11:30pm 22.5 ESE 17 22 1014.4 - 0.2 - - - - - - -
21/11:00pm 22.5 SE 15 19 1014.8 - 0.2 - - - - - - -
21/10:30pm 22.6 SE 16 21 1014.9 - 0.2 - - - - - - -
21/10:00pm 22.6 SE 16 21 1015.4 - 0.2 - - - - - - -
21/09:30pm 22.6 SE 16 20 1015.3 - 0.2 - - - - - - -
21/09:00pm 22.5 ESE 17 21 1015.4 - 0.2 - - - - - - -
21/08:30pm 22.4 SE 18 22 1015.4 - 0.2 - - - - - - -
21/08:00pm 22.6 SE 16 21 1015.4 - 0.2 - - - - - - -
21/07:30pm 22.5 ESE 15 20 1015.1 - 0.2 - - - - - - -
21/07:00pm 22.5 ESE 17 21 1014.9 - 0.2 - - - - - - -
21/06:30pm 22.5 ESE 17 21 1014.7 - 0.2 - - - - - - -
21/06:00pm 22.8 ESE 16 20 1014.9 - 0.2 - - - - - - -
21/05:30pm 23.2 ESE 14 19 1015.0 - 0.2 - - - - - - -
21/05:00pm 23.4 ESE 14 18 1014.7 - 0.2 - - - - - - -
21/04:30pm 23.3 SE 15 19 1014.4 - 0.2 - - - - - - -
21/04:00pm 23.4 SE 16 20 1014.2 - 0.2 - - - - - - -
21/03:30pm 23.7 SE 15 20 1014.3 - 0.2 - - - - - - -
21/03:00pm 23.2 ESE 15 19 1014.6 - 0.2 - - - - - - -
21/02:30pm 24.0 SE 17 20 1014.7 - 0.2 - - - - - - -
21/02:00pm 23.8 SE 15 21 1014.8 - 0.2 - - - - - - -
21/01:30pm 24.7 SE 14 18 1015.3 - 0.2 - - - - - - -
21/01:00pm 24.4 SE 15 21 1015.5 - 0.2 - - - - - - -
21/12:30pm 24.8 SE 14 17 1016.0 - 0.2 - - - - - - -
21/12:00pm 23.9 SE 15 20 1016.1 - 0.2 - - - - - - -
21/11:30am 24.8 SE 14 18 1016.1 - 0.2 - - - - - - -
21/11:00am 24.6 SE 15 19 1016.0 - 0.2 - - - - - - -
21/10:30am 24.7 SE 13 16 1016.6 - 0.2 - - - - - - -
21/10:00am 24.5 SE 14 19 1016.5 - 0.2 - - - - - - -
21/09:30am 24.5 SE 15 19 1016.5 - 0.2 - - - - - - -
21/09:00am 24.2 ESE 15 19 1016.5 - 1.4 - - - - - - -
21/08:30am 22.8 ESE 15 18 1016.3 - 1.4 - - - - - - -
21/08:00am 23.7 ESE 14 17 1016.4 - 1.4 - - - - - - -
21/07:30am 23.5 SE 14 18 1016.0 - 1.4 - - - - - - -
21/07:00am 23.1 ESE 14 18 1015.9 - 1.4 - - - - - - -
21/06:30am 22.7 ESE 15 19 1015.7 - 1.4 - - - - - - -
21/06:00am 21.6 ESE 16 22 1015.6 - 1.4 - - - - - - -
21/05:30am 21.4 ESE 14 18 1015.4 - 1.4 - - - - - - -
21/05:00am 21.2 ESE 15 19 1015.0 - 1.4 - - - - - - -
21/04:30am 20.8 ESE 10 17 1014.9 - 1.4 - - - - - - -
21/04:00am 21.6 SE 12 16 1014.7 - 0.0 - - - - - - -
21/03:30am 21.8 SE 15 18 1014.6 - 0.0 - - - - - - -
21/03:00am 21.8 ESE 14 17 1014.6 - 0.0 - - - - - - -
21/02:30am 21.9 ESE 14 18 1014.8 - 0.0 - - - - - - -
21/02:00am 22.1 ESE 15 19 1014.9 - 0.0 - - - - - - -
21/01:30am 21.9 ESE 15 18 1015.2 - 0.0 - - - - - - -
21/01:00am 21.9 SE 15 18 1015.5 - 0.0 - - - - - - -
21/12:30am 22.0 SE 16 20 1015.6 - 0.0 - - - - - - -
21/12:00am 22.1 SE 16 20 1015.9 - 0.0 - - - - - - -
 
Date/Time
EST
Temp
°C
Wind Pressure Rain since
9am
mm
Weather Cloud Vis
km
Sea
Height
m
Swell
Dir  Spd
kts
Gust
kts
hPa Trend Height
m
Period
s
Dir
20/11:30pm 22.1 SE 15 19 1016.3 - 0.0 - - - - - - -
20/11:00pm 22.1 SE 16 20 1016.6 - 0.0 - - - - - - -
20/10:30pm 22.2 SE 17 21 1016.7 - 0.0 - - - - - - -
20/10:00pm 22.2 SE 17 22 1017.0 - 0.0 - - - - - - -
20/09:30pm 22.1 SE 17 22 1017.0 - 0.0 - - - - - - -
20/09:00pm 22.2 SE 18 22 1016.9 - 0.0 - - - - - - -
20/08:30pm 22.3 SE 17 23 1017.1 - 0.0 - - - - - - -
20/08:00pm 22.2 SE 17 23 1017.0 - 0.0 - - - - - - -
20/07:30pm 22.1 SE 16 21 1016.7 - 0.0 - - - - - - -
20/07:00pm 21.8 SE 15 19 1016.9 - 0.0 - - - - - - -
20/06:30pm 21.7 ESE 15 20 1016.7 - 0.0 - - - - - - -
20/06:00pm 22.1 SE 16 20 1016.3 - 0.0 - - - - - - -
20/05:30pm 22.5 ESE 17 21 1016.1 - 0.0 - - - - - - -
20/05:00pm 22.9 SE 17 22 1015.8 - 0.0 - - - - - - -
20/04:30pm 23.2 SE 18 22 1015.5 - 0.0 - - - - - - -
20/04:00pm 23.5 SE 15 19 1015.4 - 0.0 - - - - - - -
20/03:30pm 23.8 SE 14 17 1015.5 - 0.0 - - - - - - -
20/03:00pm 24.1 SE 14 17 1015.6 - 0.0 - - - - - - -
20/02:30pm 23.7 SE 15 19 1015.8 - 0.0 - - - - - - -
20/02:00pm 24.3 SE 14 19 1016.0 - 0.0 - - - - - - -
20/01:30pm 24.1 SE 14 18 1016.3 - 0.0 - - - - - - -
20/01:00pm 24.4 SE 9 11 1016.5 - 0.0 - - - - - - -
20/12:30pm 23.5 SE 15 23 1016.9 - 0.0 - - - - - - -
20/12:00pm 25.1 ESE 13 17 1017.1 - 0.0 - - - - - - -
20/11:30am 24.9 ESE 14 18 1017.2 - 0.0 - - - - - - -
20/11:00am 24.5 ESE 15 19 1017.5 - 0.0 - - - - - - -
20/10:30am 24.7 ESE 14 20 1017.5 - 0.0 - - - - - - -
20/10:00am 24.4 SE 15 20 1017.4 - 0.0 - - - - - - -
20/09:30am 24.5 SE 15 20 1017.3 - 0.0 - - - - - - -
20/09:00am 24.0 SE 14 18 1017.1 - 10.6 - - - - - - -
20/08:30am 23.9 SE 15 18 1017.0 - 10.6 - - - - - - -

Other Formats:

Comma delimited format used in spreadsheet applications
http://www.bom.gov.au/fwo/IDQ60701/IDQ60701.94388.axf

JavaScript Object Notation format (JSON) in row-major order
http://www.bom.gov.au/fwo/IDQ60701/IDQ60701.94388.json